Time;durP1;ratioP1;P1;durP2;ratioP2;P2;SDS_P1;SDS_P2;PMS_P1;PMS_P2;Temp;Humidity;BMP_temperature;BMP_pressure;BME280_temperature;BME280_humidity;BME280_pressure;Samples;Min_cycle;Max_cycle;Signal;HPM_P1;HPM_P2
2023/01/16 00:00:18;;;;;;;2.10;0.93;;;5.50;99.90;;;;;;4996983;28;20593;-84
2023/01/16 00:02:43;;;;;;;2.10;0.97;;;5.50;99.90;;;;;;4965263;28;20802;-84
2023/01/16 00:05:09;;;;;;;7.67;1.63;;;5.40;99.90;;;;;;4965564;28;20455;-84
2023/01/16 00:07:34;;;;;;;1.97;0.90;;;5.50;99.90;;;;;;4960009;28;20182;-84
2023/01/16 00:10:00;;;;;;;2.73;0.67;;;5.40;99.90;;;;;;4976137;28;20186;-84
2023/01/16 00:12:28;;;;;;;3.60;1.17;;;5.40;99.90;;;;;;4959951;28;20590;-84
2023/01/16 00:14:53;;;;;;;2.63;1.00;;;5.50;99.90;;;;;;4975981;28;20220;-84
2023/01/16 00:17:19;;;;;;;3.83;1.20;;;5.50;99.90;;;;;;4977105;28;20469;-85
2023/01/16 00:19:44;;;;;;;2.87;1.80;;;5.50;99.90;;;;;;4959494;28;20213;-84
2023/01/16 00:22:10;;;;;;;5.77;2.20;;;5.50;99.90;;;;;;4959781;28;20375;-85
2023/01/16 00:24:35;;;;;;;6.60;1.80;;;5.50;99.90;;;;;;4960753;28;20177;-85
2023/01/16 00:27:01;;;;;;;6.27;1.40;;;5.50;99.90;;;;;;4959655;28;20537;-84
2023/01/16 00:29:26;;;;;;;2.70;1.37;;;5.60;99.90;;;;;;4958775;28;20261;-90
2023/01/16 00:31:52;;;;;;;4.10;1.13;;;5.50;99.90;;;;;;4960039;28;20208;-88
2023/01/16 00:34:17;;;;;;;1.93;0.93;;;5.60;99.90;;;;;;4959200;28;20170;-87
2023/01/16 00:36:43;;;;;;;5.03;1.63;;;5.60;99.90;;;;;;4977180;28;20314;-87
2023/01/16 00:39:12;;;;;;;2.40;1.33;;;5.60;99.90;;;;;;4960144;28;20207;-87
2023/01/16 00:41:37;;;;;;;3.60;0.60;;;5.60;99.90;;;;;;4959601;28;20228;-87
2023/01/16 00:44:06;;;;;;;1.77;0.80;;;5.60;99.90;;;;;;4973485;28;20476;-88
2023/01/16 00:46:31;;;;;;;1.20;0.70;;;5.60;99.90;;;;;;4993948;28;20252;-87
2023/01/16 00:48:57;;;;;;;3.10;1.07;;;5.60;99.90;;;;;;4977632;28;20456;-87
2023/01/16 00:51:22;;;;;;;3.50;1.10;;;5.60;99.90;;;;;;4977958;28;20173;-87
2023/01/16 00:53:48;;;;;;;2.30;0.83;;;5.60;99.90;;;;;;4993923;28;20184;-88
2023/01/16 00:56:13;;;;;;;1.73;1.10;;;5.60;99.90;;;;;;4993900;28;20169;-87
2023/01/16 00:58:39;;;;;;;1.23;0.43;;;5.60;99.90;;;;;;4994476;28;20209;-85
2023/01/16 01:01:05;;;;;;;2.33;0.93;;;5.60;99.90;;;;;;4992952;28;20181;-86
2023/01/16 01:03:31;;;;;;;2.37;0.43;;;5.60;99.90;;;;;;4994243;28;20718;-86
2023/01/16 01:05:57;;;;;;;1.57;0.80;;;5.70;99.90;;;;;;4955424;28;20424;-85
2023/01/16 01:08:43;;;;;;;4.70;0.77;;;5.60;99.90;;;;;;4961351;28;20432;-86
2023/01/16 01:11:12;;;;;;;1.63;0.40;;;5.70;99.90;;;;;;4993578;28;20438;-85
2023/01/16 01:13:51;;;;;;;4.17;0.90;;;5.60;99.90;;;;;;4961473;28;20432;-86
2023/01/16 01:16:18;;;;;;;1.23;1.13;;;5.50;99.90;;;;;;4990791;28;20415;-86
2023/01/16 01:18:45;;;;;;;3.17;1.40;;;5.60;99.90;;;;;;4976488;28;20424;-85
2023/01/16 01:21:10;;;;;;;1.60;0.70;;;5.60;99.90;;;;;;4944464;28;20475;-86
2023/01/16 01:23:36;;;;;;;4.13;0.97;;;5.60;99.90;;;;;;4976616;28;20559;-85
2023/01/16 01:26:07;;;;;;;2.93;0.60;;;5.60;99.90;;;;;;4992990;28;20173;-85
2023/01/16 01:28:32;;;;;;;2.93;0.57;;;5.60;99.90;;;;;;4976751;28;20321;-87
2023/01/16 01:31:02;;;;;;;4.93;0.20;;;5.60;99.90;;;;;;4976848;28;20503;-85
2023/01/16 01:33:28;;;;;;;3.70;0.70;;;5.60;99.90;;;;;;4992548;28;20176;-86
2023/01/16 01:35:53;;;;;;;2.83;0.70;;;5.60;99.90;;;;;;4992766;28;20424;-86
2023/01/16 01:38:19;;;;;;;4.30;1.27;;;5.60;99.90;;;;;;4982609;28;20599;-86
2023/01/16 01:40:59;;;;;;;6.90;0.93;;;5.50;99.90;;;;;;4955181;28;20254;-85
2023/01/16 01:43:44;;;;;;;2.20;0.63;;;5.50;99.90;;;;;;4949217;28;20212;-86
2023/01/16 01:46:25;;;;;;;3.03;0.60;;;5.40;99.90;;;;;;4964986;28;20437;-86
2023/01/16 01:49:36;;;;;;;0.93;0.47;;;5.50;99.90;;;;;;4964836;28;20418;-85
2023/01/16 01:52:14;;;;;;;1.77;0.67;;;5.40;99.90;;;;;;4965441;28;20424;-86
2023/01/16 01:54:46;;;;;;;2.47;0.53;;;5.20;99.90;;;;;;4963872;28;21002;-86
2023/01/16 01:57:26;;;;;;;2.30;0.70;;;5.20;99.90;;;;;;4948474;28;20437;-85
2023/01/16 02:00:01;;;;;;;3.50;0.47;;;4.80;99.90;;;;;;4965357;28;20781;-86
2023/01/16 02:02:33;;;;;;;1.83;0.67;;;4.80;99.90;;;;;;4932067;28;20551;-86
2023/01/16 02:05:01;;;;;;;2.30;0.40;;;4.90;99.90;;;;;;4960254;28;20460;-85
2023/01/16 02:07:30;;;;;;;4.40;0.50;;;5.00;99.90;;;;;;4964804;28;20483;-86
2023/01/16 02:10:05;;;;;;;8.43;1.17;;;5.00;99.90;;;;;;4975135;28;20794;-86
2023/01/16 02:12:31;;;;;;;2.70;0.80;;;5.00;99.90;;;;;;4959563;28;20437;-86
2023/01/16 02:14:58;;;;;;;1.30;0.50;;;4.90;99.90;;;;;;4962961;28;20427;-85
2023/01/16 02:20:23;;;;;;;2.30;0.20;;;4.90;99.90;;;;;;4953354;28;20486;-85
2023/01/16 02:23:11;;;;;;;1.30;0.37;;;4.90;99.90;;;;;;4962760;28;20865;-85
2023/01/16 02:26:14;;;;;;;1.87;0.60;;;4.90;99.90;;;;;;4963288;28;20427;-85
2023/01/16 02:29:21;;;;;;;1.90;0.40;;;4.80;99.90;;;;;;4961563;28;20453;-85
2023/01/16 02:32:16;;;;;;;1.07;0.50;;;4.70;99.90;;;;;;4962900;28;20452;-85
2023/01/16 02:34:53;;;;;;;5.77;1.20;;;4.70;99.90;;;;;;4963149;28;20422;-85
2023/01/16 02:37:34;;;;;;;1.17;0.40;;;4.60;99.90;;;;;;4944795;28;20458;-85
2023/01/16 02:40:13;;;;;;;0.90;0.30;;;4.60;99.90;;;;;;4962597;28;20422;-85
2023/01/16 02:42:57;;;;;;;4.40;0.63;;;4.60;99.90;;;;;;4962155;28;20480;-85
2023/01/16 02:45:49;;;;;;;1.63;0.87;;;4.60;99.90;;;;;;4961250;28;21004;-85
2023/01/16 02:48:33;;;;;;;1.27;0.53;;;4.50;99.90;;;;;;4959726;28;20426;-86
2023/01/16 02:51:24;;;;;;;2.30;0.30;;;4.50;99.90;;;;;;4944849;28;20424;-85
2023/01/16 02:54:13;;;;;;;0.97;0.20;;;4.60;99.90;;;;;;4963198;28;20413;-85
2023/01/16 02:57:06;;;;;;;1.73;0.40;;;4.50;99.90;;;;;;4959115;28;20410;-85
2023/01/16 02:59:32;;;;;;;1.80;0.40;;;4.60;99.90;;;;;;4958993;28;20436;-85
2023/01/16 03:02:01;;;;;;;0.50;0.30;;;4.60;99.90;;;;;;4963255;28;20415;-85
2023/01/16 03:04:36;;;;;;;1.67;0.30;;;4.60;99.90;;;;;;4936574;29;20525;-85
2023/01/16 03:07:21;;;;;;;1.40;0.30;;;4.60;99.90;;;;;;4954244;29;20435;-85
2023/01/16 03:10:32;;;;;;;5.03;0.50;;;4.70;99.90;;;;;;4954163;29;20418;-85
2023/01/16 03:13:22;;;;;;;0.77;0.57;;;4.70;99.90;;;;;;4936749;29;20434;-84
2023/01/16 03:16:29;;;;;;;2.07;0.37;;;4.70;99.90;;;;;;4936898;29;20437;-85
2023/01/16 03:19:19;;;;;;;1.67;0.37;;;4.70;99.90;;;;;;4927662;29;20425;-85
2023/01/16 03:22:12;;;;;;;0.83;0.30;;;4.80;99.90;;;;;;4954647;29;20511;-85
2023/01/16 03:25:19;;;;;;;1.97;0.50;;;4.80;99.90;;;;;;4954205;29;20437;-85
2023/01/16 03:28:07;;;;;;;1.53;0.60;;;4.80;99.90;;;;;;4915790;28;20440;-85
2023/01/16 03:30:41;;;;;;;2.47;0.30;;;4.80;99.90;;;;;;4972850;28;20414;-85
2023/01/16 03:33:16;;;;;;;0.80;0.60;;;4.80;99.90;;;;;;4956356;29;20433;-85
2023/01/16 03:36:30;;;;;;;3.23;1.43;;;4.80;99.90;;;;;;4959559;28;20430;-85
2023/01/16 03:38:57;;;;;;;2.20;0.57;;;4.90;99.90;;;;;;4969928;28;20956;-85
2023/01/16 03:41:27;;;;;;;2.00;0.40;;;5.00;99.90;;;;;;4977124;28;20485;-85
2023/01/16 03:44:00;;;;;;;0.40;0.30;;;4.90;99.90;;;;;;4977037;28;20475;-86
2023/01/16 03:46:39;;;;;;;1.00;0.40;;;4.90;99.90;;;;;;4975632;28;20509;-85
2023/01/16 03:49:09;;;;;;;2.73;0.93;;;4.80;99.90;;;;;;4976641;28;20568;-85
2023/01/16 03:51:41;;;;;;;0.83;0.50;;;4.80;99.90;;;;;;4975740;28;20421;-86
2023/01/16 03:54:41;;;;;;;1.73;0.23;;;4.80;99.90;;;;;;4959543;28;20417;-86
2023/01/16 03:57:14;;;;;;;1.40;0.40;;;4.80;99.90;;;;;;4946864;28;20450;-85
2023/01/16 03:59:42;;;;;;;3.73;0.77;;;4.80;99.90;;;;;;4975609;28;20493;-85
2023/01/16 04:02:26;;;;;;;3.33;1.43;;;4.80;99.90;;;;;;4975151;28;20920;-86
2023/01/16 04:05:14;;;;;;;2.87;0.50;;;4.80;99.90;;;;;;4975518;28;20428;-85
2023/01/16 04:07:55;;;;;;;1.27;0.50;;;4.90;99.90;;;;;;4978821;28;20426;-85
2023/01/16 04:10:36;;;;;;;1.50;1.03;;;4.80;99.90;;;;;;4975293;28;20436;-85
2023/01/16 04:13:07;;;;;;;1.63;0.30;;;4.90;99.90;;;;;;4975493;28;20430;-86
2023/01/16 04:15:35;;;;;;;1.63;0.50;;;4.80;99.90;;;;;;4974955;28;20785;-85
2023/01/16 04:18:01;;;;;;;1.90;0.50;;;4.90;99.90;;;;;;4958706;28;20426;-85
2023/01/16 04:20:29;;;;;;;1.53;0.40;;;4.90;99.90;;;;;;4976299;28;20929;-85
2023/01/16 04:22:54;;;;;;;5.10;0.60;;;4.90;99.90;;;;;;4975199;28;20224;-85
2023/01/16 04:25:21;;;;;;;3.03;0.70;;;4.90;99.90;;;;;;4975344;28;20425;-85
2023/01/16 04:27:46;;;;;;;1.90;0.77;;;4.90;99.90;;;;;;4975014;28;20281;-85
2023/01/16 04:30:15;;;;;;;1.63;0.23;;;4.90;99.90;;;;;;4974965;28;20449;-85
2023/01/16 04:32:42;;;;;;;1.03;0.20;;;4.90;99.90;;;;;;4974558;28;20182;-84
2023/01/16 04:35:08;;;;;;;0.80;0.20;;;5.00;99.90;;;;;;4974913;28;20452;-85
2023/01/16 04:37:34;;;;;;;2.20;0.73;;;5.00;99.90;;;;;;4974119;28;20476;-85
2023/01/16 04:40:00;;;;;;;1.47;0.37;;;4.90;99.90;;;;;;4974342;28;20921;-85
2023/01/16 04:42:26;;;;;;;2.60;0.50;;;5.00;99.90;;;;;;4975874;28;20476;-85
2023/01/16 04:44:52;;;;;;;1.17;0.40;;;5.00;99.90;;;;;;4975957;28;20429;-85
2023/01/16 04:47:17;;;;;;;5.33;0.83;;;5.00;99.90;;;;;;4976567;28;20207;-85
2023/01/16 04:49:43;;;;;;;0.80;0.30;;;5.00;99.90;;;;;;4976112;28;20182;-85
2023/01/16 04:52:10;;;;;;;1.10;0.20;;;4.90;99.90;;;;;;4975867;28;20203;-85
2023/01/16 04:54:35;;;;;;;1.47;0.23;;;4.90;99.90;;;;;;4975912;28;20270;-85
2023/01/16 04:57:01;;;;;;;3.67;0.40;;;4.90;99.90;;;;;;4975659;28;20521;-85
2023/01/16 04:59:27;;;;;;;1.17;0.30;;;4.80;99.90;;;;;;4975453;28;20176;-86
2023/01/16 05:01:52;;;;;;;1.37;0.40;;;4.90;99.90;;;;;;4975730;28;20534;-86
2023/01/16 05:04:18;;;;;;;1.57;0.60;;;4.90;99.90;;;;;;4975396;28;20214;-86
2023/01/16 05:06:43;;;;;;;2.50;0.50;;;4.90;99.90;;;;;;4975523;28;20180;-86
2023/01/16 05:09:09;;;;;;;1.20;0.40;;;4.90;99.90;;;;;;4974473;28;20586;-85
2023/01/16 05:11:35;;;;;;;1.63;0.20;;;4.90;99.90;;;;;;4974116;28;20206;-86
2023/01/16 05:14:01;;;;;;;0.97;0.80;;;4.90;99.90;;;;;;4974299;28;20187;-87
2023/01/16 05:16:26;;;;;;;4.50;0.70;;;4.90;99.90;;;;;;4975424;28;20223;-87
2023/01/16 05:18:52;;;;;;;0.87;0.30;;;4.90;99.90;;;;;;4957650;28;20424;-86
2023/01/16 05:21:20;;;;;;;2.10;0.30;;;4.90;99.90;;;;;;4974217;28;20428;-86
2023/01/16 05:23:46;;;;;;;2.30;0.53;;;4.90;99.90;;;;;;4974491;28;20215;-87
2023/01/16 05:26:12;;;;;;;1.17;0.30;;;4.90;99.90;;;;;;4973886;28;20432;-86
2023/01/16 05:28:38;;;;;;;2.60;0.40;;;4.90;99.90;;;;;;4974009;28;20187;-86
2023/01/16 05:31:03;;;;;;;2.93;0.40;;;4.90;99.90;;;;;;4974091;28;20433;-87
2023/01/16 05:33:29;;;;;;;1.67;0.30;;;4.80;99.90;;;;;;4973882;28;20182;-87
2023/01/16 05:35:55;;;;;;;4.37;0.60;;;4.80;99.90;;;;;;4975202;28;20189;-87
2023/01/16 05:38:21;;;;;;;5.30;0.30;;;4.80;99.90;;;;;;4973620;28;20232;-86
2023/01/16 05:40:47;;;;;;;2.13;0.57;;;4.80;99.90;;;;;;4957540;28;20916;-86
2023/01/16 05:43:13;;;;;;;1.00;0.27;;;4.80;99.90;;;;;;4957408;28;20845;-86
2023/01/16 05:45:39;;;;;;;1.70;0.33;;;4.80;99.90;;;;;;4957537;28;20569;-86
2023/01/16 05:48:04;;;;;;;3.77;0.40;;;4.80;99.90;;;;;;4933931;28;20610;-86
2023/01/16 05:50:30;;;;;;;1.00;0.17;;;4.80;99.90;;;;;;4956398;28;20185;-85
2023/01/16 05:52:56;;;;;;;1.07;0.97;;;4.80;99.90;;;;;;4973554;28;20436;-85
2023/01/16 05:55:22;;;;;;;2.43;0.33;;;4.70;99.90;;;;;;4957478;28;20208;-85
2023/01/16 05:57:47;;;;;;;1.17;0.30;;;4.60;99.90;;;;;;4988772;28;20434;-85
2023/01/16 06:00:13;;;;;;;1.80;0.20;;;4.70;99.90;;;;;;4973810;28;20174;-85
2023/01/16 06:02:39;;;;;;;2.63;0.60;;;4.70;99.90;;;;;;4973598;28;20207;-85
2023/01/16 06:05:05;;;;;;;2.17;0.37;;;4.70;99.90;;;;;;4957100;28;20434;-85
2023/01/16 06:07:31;;;;;;;1.30;0.30;;;4.60;99.90;;;;;;4957071;28;20178;-85
2023/01/16 06:09:56;;;;;;;0.93;0.30;;;4.60;99.90;;;;;;4957368;28;20432;-85
2023/01/16 06:12:22;;;;;;;5.30;0.50;;;4.50;99.90;;;;;;4974364;28;20180;-85
2023/01/16 06:14:47;;;;;;;1.27;0.47;;;4.50;99.90;;;;;;4957338;28;20283;-83
2023/01/16 06:17:14;;;;;;;1.57;0.20;;;4.40;99.90;;;;;;4956785;28;20198;-84
2023/01/16 06:19:40;;;;;;;0.67;0.30;;;4.40;99.90;;;;;;4956437;28;20189;-86
2023/01/16 06:22:06;;;;;;;1.83;0.50;;;4.40;99.90;;;;;;4967588;28;20438;-85
2023/01/16 06:24:31;;;;;;;4.43;0.67;;;4.50;99.90;;;;;;4967628;28;20461;-86
2023/01/16 06:26:57;;;;;;;0.90;0.40;;;4.50;99.90;;;;;;4965743;28;20203;-85
2023/01/16 06:29:22;;;;;;;7.07;0.50;;;4.50;99.90;;;;;;4960805;28;20215;-86
2023/01/16 06:31:48;;;;;;;0.93;0.30;;;4.50;99.90;;;;;;4966487;28;20184;-85
2023/01/16 06:34:14;;;;;;;3.90;0.60;;;4.50;99.90;;;;;;4965470;28;20615;-87
2023/01/16 06:36:41;;;;;;;7.03;1.83;;;4.50;99.90;;;;;;4968032;28;20184;-86
2023/01/16 06:39:07;;;;;;;0.90;0.30;;;4.50;99.90;;;;;;4970667;28;20442;-85
2023/01/16 06:41:32;;;;;;;0.70;0.30;;;4.50;99.90;;;;;;4963577;28;20894;-87
2023/01/16 06:44:04;;;;;;;2.20;0.30;;;4.50;99.90;;;;;;4956268;28;20519;-87
2023/01/16 06:46:30;;;;;;;2.83;0.53;;;4.60;99.90;;;;;;4970631;28;20185;-86
2023/01/16 06:48:58;;;;;;;0.97;0.37;;;4.60;99.90;;;;;;4935427;28;21098;-86
2023/01/16 06:51:24;;;;;;;2.73;0.30;;;4.60;99.90;;;;;;4992175;28;20190;-85
2023/01/16 06:53:49;;;;;;;1.23;0.30;;;4.60;99.90;;;;;;4975945;28;20828;-85
2023/01/16 06:56:17;;;;;;;1.80;0.20;;;4.70;99.90;;;;;;4992972;28;20550;-85
2023/01/16 06:58:42;;;;;;;0.80;0.20;;;4.60;99.90;;;;;;4959652;28;20440;-86
2023/01/16 07:01:08;;;;;;;1.13;0.57;;;4.70;99.90;;;;;;4975471;28;20436;-84
2023/01/16 07:03:34;;;;;;;2.03;0.40;;;4.70;99.90;;;;;;4990903;28;20229;-85
2023/01/16 07:06:00;;;;;;;0.73;0.30;;;4.70;99.90;;;;;;4975240;28;20168;-85
2023/01/16 07:08:39;;;;;;;1.30;0.30;;;4.70;99.90;;;;;;4993264;28;20442;-86
2023/01/16 07:11:12;;;;;;;0.40;0.27;;;4.70;99.90;;;;;;4993039;28;20586;-86
2023/01/16 07:13:38;;;;;;;1.53;0.50;;;4.70;99.90;;;;;;4959424;28;20430;-85
2023/01/16 07:24:22;;;;;;;0.60;0.30;;;4.60;99.90;;;;;;4975262;28;20477;-86
2023/01/16 07:26:57;;;;;;;2.43;0.20;;;4.50;99.90;;;;;;4975991;28;20514;-86
2023/01/16 07:29:23;;;;;;;2.17;0.30;;;4.60;99.90;;;;;;4957082;28;20435;-87
2023/01/16 07:31:49;;;;;;;2.20;0.40;;;4.60;99.90;;;;;;4967302;28;20514;-86
2023/01/16 07:34:14;;;;;;;0.90;0.20;;;5.10;99.90;;;;;;4972659;28;20511;-85
2023/01/16 07:36:40;;;;;;;1.13;0.33;;;4.50;99.90;;;;;;4992279;28;20594;-84
2023/01/16 07:39:05;;;;;;;2.33;0.20;;;4.50;99.90;;;;;;4992873;28;20242;-84
2023/01/16 07:41:31;;;;;;;0.50;0.23;;;4.40;99.90;;;;;;4992854;28;20260;-84
2023/01/16 07:43:57;;;;;;;2.20;0.30;;;4.30;99.90;;;;;;4979029;28;20239;-84
2023/01/16 07:46:23;;;;;;;0.90;0.30;;;4.30;99.90;;;;;;4994887;28;20180;-83
2023/01/16 07:48:51;;;;;;;0.80;0.30;;;4.40;99.90;;;;;;4993644;28;20435;-84
2023/01/16 07:51:16;;;;;;;3.70;1.23;;;4.30;99.90;;;;;;4992926;28;20180;-82
2023/01/16 07:53:42;;;;;;;0.90;0.37;;;4.30;99.90;;;;;;4991983;28;20498;-84
2023/01/16 07:56:08;;;;;;;0.60;0.20;;;4.30;99.90;;;;;;4974348;28;20176;-84
2023/01/16 07:58:33;;;;;;;1.50;0.40;;;4.30;99.90;;;;;;4991906;28;20183;-84
2023/01/16 08:00:59;;;;;;;0.43;0.20;;;4.20;99.90;;;;;;4990938;28;20434;-84
2023/01/16 08:03:30;;;;;;;0.77;0.20;;;4.20;99.90;;;;;;4990833;28;20215;-85
2023/01/16 08:05:57;;;;;;;1.90;0.37;;;4.20;99.90;;;;;;4991222;28;20695;-84
2023/01/16 08:08:25;;;;;;;3.70;0.67;;;4.10;99.90;;;;;;4992731;28;20918;-84
2023/01/16 08:10:53;;;;;;;2.93;0.50;;;4.20;99.90;;;;;;4991616;28;20429;-86
2023/01/16 08:13:19;;;;;;;0.97;0.70;;;4.10;99.90;;;;;;4992126;28;20435;-83
2023/01/16 08:15:45;;;;;;;2.27;0.60;;;4.30;99.90;;;;;;4995712;28;20439;-83
2023/01/16 08:18:12;;;;;;;2.97;0.83;;;4.30;99.90;;;;;;4995325;28;20230;-84
2023/01/16 08:20:41;;;;;;;1.33;0.37;;;4.30;99.90;;;;;;4995843;28;20829;-84
2023/01/16 08:23:07;;;;;;;3.23;0.30;;;4.40;99.90;;;;;;4995668;28;20571;-85
2023/01/16 08:25:33;;;;;;;2.53;0.60;;;4.70;99.90;;;;;;4978066;28;20516;-84
2023/01/16 08:27:58;;;;;;;1.90;0.50;;;4.60;99.90;;;;;;4995138;28;20175;-84
2023/01/16 08:30:24;;;;;;;5.03;1.47;;;5.00;99.90;;;;;;4995216;28;20176;-85
2023/01/16 08:32:49;;;;;;;0.70;0.53;;;5.00;99.90;;;;;;4994728;28;20267;-85
2023/01/16 08:35:15;;;;;;;1.40;0.23;;;4.90;99.90;;;;;;4977618;28;20260;-85
2023/01/16 08:37:48;;;;;;;2.13;0.43;;;5.00;99.90;;;;;;4994895;28;20229;-84
2023/01/16 08:40:14;;;;;;;2.10;0.47;;;5.20;99.90;;;;;;4993801;28;20173;-84
2023/01/16 08:53:40;;;;;;;1.03;0.20;;;7.00;99.90;;;;;;4992716;28;20416;-84
2023/01/16 08:56:06;;;;;;;0.87;0.20;;;6.90;99.90;;;;;;4993560;28;20422;-83
2023/01/16 08:58:31;;;;;;;1.07;0.53;;;7.10;1.00;;;;;;4994586;28;20194;-84
2023/01/16 09:00:57;;;;;;;1.13;0.33;;;7.20;1.00;;;;;;4977167;28;20413;-83
2023/01/16 09:03:28;;;;;;;0.80;0.20;;;7.00;99.90;;;;;;4992819;28;20264;-83
2023/01/16 09:05:57;;;;;;;0.90;0.20;;;7.70;1.00;;;;;;4994522;28;20172;-83
2023/01/16 09:08:22;;;;;;;1.83;0.37;;;7.90;1.00;;;;;;4994487;28;20434;-83
2023/01/16 09:13:52;;;;;;;0.73;0.20;;;7.00;1.00;;;;;;4994340;28;20180;-83
2023/01/16 09:16:20;;;;;;;3.43;0.30;;;;;;;;;;4992198;28;20472;-83
2023/01/16 09:18:46;;;;;;;4.53;0.20;;;5.80;39.30;;;;;;4989706;28;20942;-83
2023/01/16 09:21:12;;;;;;;1.87;0.73;;;5.50;99.90;;;;;;4973991;28;20428;-83
2023/01/16 09:23:37;;;;;;;2.43;0.30;;;5.40;99.90;;;;;;4976617;28;20483;-83
2023/01/16 09:26:03;;;;;;;0.40;0.30;;;5.40;99.90;;;;;;4992189;28;20187;-82
2023/01/16 09:28:28;;;;;;;3.47;0.30;;;5.40;99.90;;;;;;5014083;28;20197;-83
2023/01/16 09:30:54;;;;;;;3.50;0.27;;;5.20;99.90;;;;;;4996444;28;20177;-83
2023/01/16 09:33:19;;;;;;;0.87;0.37;;;5.30;99.90;;;;;;5014025;28;20509;-83
2023/01/16 09:35:44;;;;;;;2.30;0.60;;;5.10;99.90;;;;;;4997160;28;20213;-83
2023/01/16 09:38:10;;;;;;;1.27;0.23;;;5.10;99.90;;;;;;5014408;28;20226;-83
2023/01/16 09:40:36;;;;;;;2.47;0.43;;;5.00;99.90;;;;;;5005439;28;20664;-83
2023/01/16 09:43:37;;;;;;;0.70;0.20;;;5.10;99.90;;;;;;4994464;28;20204;-83
2023/01/16 09:46:13;;;;;;;0.67;0.20;;;5.20;99.90;;;;;;4994300;28;20415;-84
2023/01/16 09:49:01;;;;;;;0.83;0.20;;;5.10;99.90;;;;;;5008580;28;20458;-84
2023/01/16 09:51:32;;;;;;;2.57;0.33;;;5.20;99.90;;;;;;4993273;28;20523;-84
2023/01/16 09:59:51;;;;;;;4.63;0.50;;;5.10;99.90;;;;;;5014512;28;20533;-84
2023/01/16 10:02:22;;;;;;;0.87;0.20;;;5.10;99.90;;;;;;4996231;28;20422;-84
2023/01/16 10:04:49;;;;;;;4.10;0.60;;;5.20;99.90;;;;;;4971502;28;20460;-84
2023/01/16 10:07:47;;;;;;;1.37;0.50;;;5.20;99.90;;;;;;4992171;28;20499;-83
2023/01/16 10:10:41;;;;;;;3.90;0.33;;;5.30;99.90;;;;;;4994047;28;20939;-84
2023/01/16 10:13:35;;;;;;;2.50;0.50;;;5.50;99.90;;;;;;4994422;28;20419;-84
2023/01/16 10:16:18;;;;;;;2.80;0.90;;;5.50;99.90;;;;;;4963971;28;20415;-84
2023/01/16 10:19:12;;;;;;;0.50;0.30;;;5.50;99.90;;;;;;4994508;28;20404;-84
2023/01/16 10:22:09;;;;;;;1.57;0.30;;;5.60;99.90;;;;;;4976857;28;20419;-84
2023/01/16 10:25:10;;;;;;;0.67;0.30;;;5.60;99.90;;;;;;4976747;28;21022;-85
2023/01/16 10:27:39;;;;;;;3.33;0.30;;;5.60;99.90;;;;;;4943355;28;20451;-84
2023/01/16 10:30:18;;;;;;;2.40;0.40;;;5.50;99.90;;;;;;4974877;28;20888;-84
2023/01/16 10:33:12;;;;;;;1.63;0.57;;;5.60;99.90;;;;;;4985441;28;20446;-84
2023/01/16 10:35:43;;;;;;;2.33;0.80;;;5.80;99.90;;;;;;4966121;28;21083;-84
2023/01/16 10:38:43;;;;;;;2.30;0.77;;;5.80;99.90;;;;;;4972819;28;20538;-84
2023/01/16 10:49:58;;;;;;;0.80;0.20;;;7.40;99.90;;;;;;4993589;28;20516;-81
2023/01/16 10:52:24;;;;;;;2.97;0.50;;;7.40;1.00;;;;;;4993562;28;20508;-81
2023/01/16 10:54:52;;;;;;;1.00;0.30;;;7.20;1.00;;;;;;4991245;28;20943;-88
2023/01/16 10:57:20;;;;;;;1.13;0.30;;;7.20;80.00;;;;;;4992572;28;20489;-84
2023/01/16 10:59:49;;;;;;;1.00;0.30;;;6.90;99.90;;;;;;4993351;28;20498;-81
2023/01/16 11:02:37;;;;;;;4.00;0.40;;;7.10;99.90;;;;;;4993000;28;20421;-82
2023/01/16 11:05:22;;;;;;;0.50;0.20;;;7.30;99.90;;;;;;4976146;28;20441;-87
2023/01/16 11:07:48;;;;;;;7.67;0.67;;;7.60;1.00;;;;;;4976097;28;20430;-81
2023/01/16 11:10:15;;;;;;;1.37;0.20;;;7.70;99.90;;;;;;4993676;28;20427;-82
2023/01/16 11:18:28;;;;;;;5.57;0.57;;;6.90;99.90;;;;;;4991632;28;20416;-80
2023/01/16 11:20:53;;;;;;;1.23;0.20;;;6.90;1.00;;;;;;4974425;28;20460;-80
2023/01/16 11:23:22;;;;;;;0.70;0.30;;;6.80;1.00;;;;;;4992091;28;20957;-80
2023/01/16 11:25:50;;;;;;;5.80;0.30;;;6.60;1.00;;;;;;4974366;28;20672;-80
2023/01/16 11:28:27;;;;;;;1.40;0.23;;;6.60;1.00;;;;;;4974447;28;20424;-80
2023/01/16 11:31:00;;;;;;;2.77;0.40;;;6.60;1.00;;;;;;4974428;28;20439;-80
2023/01/16 11:33:33;;;;;;;1.13;0.20;;;6.60;1.00;;;;;;4975456;28;20429;-81
2023/01/16 11:36:02;;;;;;;1.03;0.30;;;6.60;1.00;;;;;;4993652;28;20457;-80
2023/01/16 11:38:32;;;;;;;3.70;0.60;;;6.60;1.00;;;;;;4975838;28;20484;-81
2023/01/16 11:41:00;;;;;;;0.60;0.37;;;6.60;1.00;;;;;;4975912;28;20432;-80
2023/01/16 11:46:27;;;;;;;0.50;0.20;;;6.60;1.00;;;;;;4993290;28;20404;-80
2023/01/16 11:48:55;;;;;;;0.73;0.40;;;6.60;1.00;;;;;;4976700;28;20426;-79
2023/01/16 11:51:26;;;;;;;1.33;0.30;;;6.50;1.00;;;;;;4979688;28;20427;-81
2023/01/16 11:53:54;;;;;;;1.73;0.33;;;6.60;1.00;;;;;;4979637;28;20925;-80
2023/01/16 11:56:50;;;;;;;0.87;0.30;;;6.80;1.00;;;;;;4979282;28;20427;-80
2023/01/16 12:00:00;;;;;;;0.77;0.30;;;7.30;99.90;;;;;;4997058;28;20496;-86
2023/01/16 12:02:31;;;;;;;2.00;0.30;;;7.30;1.00;;;;;;4920534;29;20523;-80
2023/01/16 12:08:12;;;;;;;2.00;0.47;;;7.10;1.00;;;;;;4996964;28;21012;-80
2023/01/16 12:10:46;;;;;;;2.53;0.67;;;7.20;99.90;;;;;;4997388;28;20411;-81
2023/01/16 12:16:32;;;;;;;3.33;0.80;;;7.20;1.00;;;;;;4996740;28;20419;-80
2023/01/16 12:19:31;;;;;;;1.40;0.20;;;7.00;99.90;;;;;;4996827;28;20409;-80
2023/01/16 12:22:15;;;;;;;4.53;0.40;;;6.90;99.90;;;;;;4979131;28;20997;-80
2023/01/16 12:24:47;;;;;;;3.40;0.50;;;6.70;99.90;;;;;;4996683;28;20437;-82
2023/01/16 12:27:17;;;;;;;1.20;0.33;;;6.70;99.90;;;;;;4979127;28;20416;-80
2023/01/16 12:29:45;;;;;;;0.93;0.20;;;6.70;99.90;;;;;;4979134;28;20796;-79
2023/01/16 12:32:23;;;;;;;1.80;0.30;;;6.60;99.90;;;;;;4978874;28;20922;-79
2023/01/16 12:35:06;;;;;;;1.00;0.30;;;6.80;99.90;;;;;;4996666;28;20431;-79
2023/01/16 12:37:55;;;;;;;1.90;0.37;;;7.00;1.00;;;;;;4978900;28;20867;-80
2023/01/16 12:40:30;;;;;;;2.47;0.50;;;7.00;1.00;;;;;;4979089;28;20965;-79
2023/01/16 12:43:23;;;;;;;0.93;0.53;;;6.90;15.10;;;;;;4978987;28;20457;-80
2023/01/16 12:45:58;;;;;;;1.30;0.20;;;7.50;99.90;;;;;;4994846;28;20428;-79
2023/01/16 12:48:36;;;;;;;3.17;0.70;;;6.60;99.90;;;;;;4996391;28;20404;-79
2023/01/16 12:51:09;;;;;;;2.27;1.57;;;6.70;1.00;;;;;;4978894;28;20420;-80
2023/01/16 12:54:02;;;;;;;8.33;5.07;;;6.70;58.50;;;;;;4979059;28;20825;-80
2023/01/16 12:56:46;;;;;;;2.20;1.40;;;6.70;96.20;;;;;;4978874;28;20412;-79
2023/01/16 12:59:22;;;;;;;3.23;0.40;;;6.60;99.90;;;;;;4978632;28;20507;-80
2023/01/16 13:01:55;;;;;;;2.47;1.47;;;6.40;99.90;;;;;;4995885;28;20420;-79
2023/01/16 13:04:34;;;;;;;2.03;1.23;;;6.40;99.90;;;;;;4996104;28;20499;-79
2023/01/16 13:07:00;;;;;;;2.00;0.70;;;6.50;1.00;;;;;;4978718;28;20416;-79
2023/01/16 13:09:26;;;;;;;3.33;1.57;;;6.30;1.00;;;;;;4996049;28;20411;-81
2023/01/16 13:14:54;;;;;;;3.53;1.00;;;6.30;99.90;;;;;;4996196;28;20181;-79
2023/01/16 13:17:27;;;;;;;2.23;1.10;;;6.30;1.00;;;;;;4995423;28;20431;-79
2023/01/16 13:19:54;;;;;;;1.60;0.50;;;6.30;1.00;;;;;;4995610;28;20503;-79
2023/01/16 13:22:45;;;;;;;6.97;3.60;;;6.20;1.00;;;;;;4995217;28;20433;-79
2023/01/16 13:25:35;;;;;;;8.13;5.20;;;6.20;1.00;;;;;;4995594;28;20798;-80
2023/01/16 13:28:42;;;;;;;4.30;3.00;;;6.00;1.00;;;;;;4995528;28;20410;-80
2023/01/16 13:31:34;;;;;;;5.20;2.93;;;6.20;1.00;;;;;;4977200;28;20428;-79
2023/01/16 13:34:17;;;;;;;2.70;1.30;;;6.10;1.00;;;;;;4978027;28;20419;-80
2023/01/16 13:37:06;;;;;;;3.47;1.83;;;6.20;1.00;;;;;;4978500;28;20482;-80
2023/01/16 13:40:00;;;;;;;5.90;4.20;;;6.10;1.00;;;;;;4977903;28;20432;-80
2023/01/16 13:42:29;;;;;;;1.30;0.80;;;6.10;1.00;;;;;;4995018;28;20909;-81
2023/01/16 13:47:47;;;;;;;11.73;8.60;;;6.10;1.00;;;;;;4995256;28;20469;-80
2023/01/16 13:50:26;;;;;;;4.43;1.40;;;6.10;1.00;;;;;;4977661;28;20446;-80
2023/01/16 13:53:04;;;;;;;4.50;0.97;;;6.10;1.00;;;;;;4977638;28;20468;-79
2023/01/16 13:55:36;;;;;;;3.40;1.33;;;6.00;1.00;;;;;;4995117;28;20477;-81
2023/01/16 13:58:14;;;;;;;8.13;0.40;;;6.10;1.00;;;;;;4977571;28;20424;-80
2023/01/16 14:00:41;;;;;;;1.30;0.80;;;6.30;1.00;;;;;;4976916;28;20913;-80
2023/01/16 14:03:27;;;;;;;2.77;1.03;;;6.10;1.00;;;;;;4977462;28;20494;-80
2023/01/16 14:06:09;;;;;;;2.80;0.77;;;6.10;1.00;;;;;;4977458;28;20417;-82
2023/01/16 14:11:49;;;;;;;0.90;0.30;;;;;;;;;;4994181;28;20536;-80
2023/01/16 14:17:12;;;;;;;2.80;0.87;;;;;;;;;;4954136;28;20416;-79
2023/01/16 14:20:01;;;;;;;4.43;1.33;;;;;;;;;;4993454;28;20419;-79
2023/01/16 14:25:06;;;;;;;1.53;0.57;;;;;;;;;;4994688;28;20432;-80
2023/01/16 14:27:35;;;;;;;1.70;1.00;;;;;;;;;;4993148;28;20833;-79
2023/01/16 14:30:18;;;;;;;2.43;0.50;;;;;;;;;;4994522;28;20462;-79
2023/01/16 14:32:49;;;;;;;3.30;0.50;;;;;;;;;;4994112;28;20404;-79
2023/01/16 14:35:18;;;;;;;1.03;0.30;;;;;;;;;;4994348;28;20745;-80
2023/01/16 14:37:48;;;;;;;1.50;0.60;;;;;;;;;;4994129;28;20456;-79
2023/01/16 14:55:12;;;;;;;1.17;0.63;;;;;;;;;;4992988;28;20421;-79